sensor_id;sensor_type;location;lat;lon;timestamp;pressure;altitude;pressure_sealevel;temperature;humidity
10167;BME280;62970;53.130;8.244;2022-08-30T05:03:03;102350.69;;;11.30;60.15
10167;BME280;62970;53.130;8.244;2022-08-30T05:05:33;102355.88;;;11.41;60.46
10167;BME280;62970;53.130;8.244;2022-08-30T05:08:12;102352.41;;;11.51;60.54
10167;BME280;62970;53.130;8.244;2022-08-30T05:10:45;102364.56;;;11.63;60.36
10167;BME280;62970;53.130;8.244;2022-08-30T05:13:17;102364.53;;;11.72;60.50
10167;BME280;62970;53.130;8.244;2022-08-30T05:15:47;102362.75;;;11.82;60.36
10167;BME280;62970;53.130;8.244;2022-08-30T05:18:19;102360.09;;;11.91;60.41
10167;BME280;62970;53.130;8.244;2022-08-30T05:20:49;102355.72;;;11.97;60.92
10167;BME280;62970;53.130;8.244;2022-08-30T05:23:18;102354.81;;;12.06;60.96
10167;BME280;62970;53.130;8.244;2022-08-30T05:25:47;102360.00;;;12.15;60.46
10167;BME280;62970;53.130;8.244;2022-08-30T05:28:16;102364.31;;;12.24;60.59
10167;BME280;62970;53.130;8.244;2022-08-30T05:30:46;102362.53;;;12.30;60.54
10167;BME280;62970;53.130;8.244;2022-08-30T05:33:19;102362.50;;;12.33;60.85
10167;BME280;62970;53.130;8.244;2022-08-30T05:35:48;102360.72;;;12.38;60.88
10167;BME280;62970;53.130;8.244;2022-08-30T05:38:18;102365.06;;;12.42;60.94
10167;BME280;62970;53.130;8.244;2022-08-30T05:40:47;102366.78;;;12.45;60.82
10167;BME280;62970;53.130;8.244;2022-08-30T05:43:16;102353.69;;;12.50;60.74
10167;BME280;62970;53.130;8.244;2022-08-30T05:45:58;102358.00;;;12.54;60.81
10167;BME280;62970;53.130;8.244;2022-08-30T05:48:31;102362.38;;;12.59;60.88
10167;BME280;62970;53.130;8.244;2022-08-30T05:51:07;102365.00;;;12.62;60.76
10167;BME280;62970;53.130;8.244;2022-08-30T05:53:38;102368.44;;;12.69;60.87
10167;BME280;62970;53.130;8.244;2022-08-30T06:02:35;102363.97;;;12.83;60.67
10167;BME280;62970;53.130;8.244;2022-08-30T06:05:10;102369.13;;;12.91;60.26
10167;BME280;62970;53.130;8.244;2022-08-30T06:07:39;102370.84;;;12.95;60.32
10167;BME280;62970;53.130;8.244;2022-08-30T06:10:11;102376.03;;;12.99;60.16
10167;BME280;62970;53.130;8.244;2022-08-30T06:12:48;102376.88;;;13.04;60.29
10167;BME280;62970;53.130;8.244;2022-08-30T06:15:21;102371.59;;;13.09;60.44
10167;BME280;62970;53.130;8.244;2022-08-30T06:17:59;102375.03;;;13.16;60.47
10167;BME280;62970;53.130;8.244;2022-08-30T06:24:15;102380.16;;;13.28;59.96
10167;BME280;62970;53.130;8.244;2022-08-30T06:27:01;102378.34;;;13.34;60.37
10167;BME280;62970;53.130;8.244;2022-08-30T06:29:40;102374.78;;;13.40;60.12
10167;BME280;62970;53.130;8.244;2022-08-30T06:33:08;102373.03;;;13.42;60.17
10167;BME280;62970;53.130;8.244;2022-08-30T06:36:09;102369.47;;;13.48;59.87
10167;BME280;62970;53.130;8.244;2022-08-30T06:39:10;102372.06;;;13.49;59.49
10167;BME280;62970;53.130;8.244;2022-08-30T06:42:00;102375.53;;;13.53;59.52
10167;BME280;62970;53.130;8.244;2022-08-30T06:44:39;102377.22;;;13.57;59.91
10167;BME280;62970;53.130;8.244;2022-08-30T06:47:41;102385.91;;;13.63;59.54
10167;BME280;62970;53.130;8.244;2022-08-30T06:50:23;102380.63;;;13.69;59.30
10167;BME280;62970;53.130;8.244;2022-08-30T06:52:54;102374.44;;;13.75;59.69
10167;BME280;62970;53.130;8.244;2022-08-30T06:55:45;102376.97;;;13.81;59.18
10167;BME280;62970;53.130;8.244;2022-08-30T06:58:14;102380.38;;;13.91;59.50
10167;BME280;62970;53.130;8.244;2022-08-30T07:00:48;102371.34;;;14.12;59.04
10167;BME280;62970;53.130;8.244;2022-08-30T07:03:23;102371.63;;;14.53;59.20
10167;BME280;62970;53.130;8.244;2022-08-30T07:47:50;102380.78;;;20.08;51.89
10167;BME280;62970;53.130;8.244;2022-08-30T07:50:27;102388.53;;;20.36;49.21
10167;BME280;62970;53.130;8.244;2022-08-30T07:53:09;102381.38;;;20.61;49.43
10167;BME280;62970;53.130;8.244;2022-08-30T07:55:42;102388.78;;;20.75;49.44
10167;BME280;62970;53.130;8.244;2022-08-30T07:58:14;102388.94;;;20.92;49.50
10167;BME280;62970;53.130;8.244;2022-08-30T08:00:46;102393.13;;;21.18;49.77
10167;BME280;62970;53.130;8.244;2022-08-30T08:03:34;102393.03;;;21.42;48.64
10167;BME280;62970;53.130;8.244;2022-08-30T08:06:13;102381.16;;;21.50;47.67
10167;BME280;62970;53.130;8.244;2022-08-30T08:08:51;102380.63;;;21.42;47.31
10167;BME280;62970;53.130;8.244;2022-08-30T08:11:27;102391.47;;;21.16;45.85
10167;BME280;62970;53.130;8.244;2022-08-30T08:14:05;102391.09;;;20.83;47.09
10167;BME280;62970;53.130;8.244;2022-08-30T08:16:36;102395.69;;;20.57;47.36
10167;BME280;62970;53.130;8.244;2022-08-30T08:19:11;102384.16;;;20.35;47.89
10167;BME280;62970;53.130;8.244;2022-08-30T08:21:44;102386.03;;;20.09;47.60
10167;BME280;62970;53.130;8.244;2022-08-30T08:24:13;102394.09;;;19.83;48.08
10167;BME280;62970;53.130;8.244;2022-08-30T08:26:42;102388.69;;;19.61;48.63
10167;BME280;62970;53.130;8.244;2022-08-30T08:29:14;102384.16;;;19.40;49.21
10167;BME280;62970;53.130;8.244;2022-08-30T08:31:46;102384.88;;;19.20;49.24
10167;BME280;62970;53.130;8.244;2022-08-30T08:34:21;102380.28;;;18.99;49.47
10167;BME280;62970;53.130;8.244;2022-08-30T08:36:56;102386.94;;;18.84;50.03
10167;BME280;62970;53.130;8.244;2022-08-30T08:39:31;102385.63;;;18.71;50.45
10167;BME280;62970;53.130;8.244;2022-08-30T08:42:14;102391.25;;;18.60;50.43
10167;BME280;62970;53.130;8.244;2022-08-30T08:44:57;102396.00;;;18.49;50.21
10167;BME280;62970;53.130;8.244;2022-08-30T08:47:39;102388.47;;;18.37;50.45
10167;BME280;62970;53.130;8.244;2022-08-30T08:50:16;102389.47;;;18.33;50.97
10167;BME280;62970;53.130;8.244;2022-08-30T08:52:53;102386.88;;;18.31;51.13
10167;BME280;62970;53.130;8.244;2022-08-30T08:55:52;102384.22;;;18.31;51.54
10167;BME280;62970;53.130;8.244;2022-08-30T08:58:30;102379.00;;;18.30;51.18
10167;BME280;62970;53.130;8.244;2022-08-30T09:01:03;102401.91;;;18.29;51.35
10167;BME280;62970;53.130;8.244;2022-08-30T09:03:34;102385.97;;;18.32;51.54
10167;BME280;62970;53.130;8.244;2022-08-30T09:06:30;102396.38;;;18.37;50.91
10167;BME280;62970;53.130;8.244;2022-08-30T09:09:10;102390.81;;;18.46;50.90
10167;BME280;62970;53.130;8.244;2022-08-30T09:11:43;102386.88;;;18.59;51.54
10167;BME280;62970;53.130;8.244;2022-08-30T09:14:28;102392.44;;;18.78;51.16
10167;BME280;62970;53.130;8.244;2022-08-30T09:24:25;102395.94;;;19.31;50.49
10167;BME280;62970;53.130;8.244;2022-08-30T09:26:54;102399.81;;;19.46;50.00
10167;BME280;62970;53.130;8.244;2022-08-30T09:30:05;102391.66;;;19.52;49.49
10167;BME280;62970;53.130;8.244;2022-08-30T09:32:52;102393.06;;;19.62;49.23
10167;BME280;62970;53.130;8.244;2022-08-30T09:35:37;102389.97;;;19.74;48.78
10167;BME280;62970;53.130;8.244;2022-08-30T09:38:19;102393.34;;;19.80;49.33
10167;BME280;62970;53.130;8.244;2022-08-30T09:41:52;102390.84;;;19.75;47.73
10167;BME280;62970;53.130;8.244;2022-08-30T09:44:36;102383.41;;;19.61;47.57
10167;BME280;62970;53.130;8.244;2022-08-30T09:47:32;102386.59;;;19.46;48.93
10167;BME280;62970;53.130;8.244;2022-08-30T09:50:12;102380.06;;;19.31;49.04
10167;BME280;62970;53.130;8.244;2022-08-30T09:53:11;102380.66;;;19.14;47.89
10167;BME280;62970;53.130;8.244;2022-08-30T10:21:44;102349.84;;;19.87;48.88
10167;BME280;62970;53.130;8.244;2022-08-30T10:34:39;102351.44;;;20.59;47.59
10167;BME280;62970;53.130;8.244;2022-08-30T10:37:18;102351.88;;;20.70;47.96
10167;BME280;62970;53.130;8.244;2022-08-30T10:43:12;102351.09;;;20.89;45.36
10167;BME280;62970;53.130;8.244;2022-08-30T10:48:40;102355.34;;;20.93;47.12
10167;BME280;62970;53.130;8.244;2022-08-30T10:51:24;102349.09;;;20.94;46.59
10167;BME280;62970;53.130;8.244;2022-08-30T10:54:07;102351.03;;;20.90;47.07
10167;BME280;62970;53.130;8.244;2022-08-30T10:56:42;102351.34;;;20.83;46.84
10167;BME280;62970;53.130;8.244;2022-08-30T10:59:17;102348.09;;;20.76;47.09
10167;BME280;62970;53.130;8.244;2022-08-30T11:02:16;102358.88;;;20.71;47.09
10167;BME280;62970;53.130;8.244;2022-08-30T11:08:02;102351.19;;;20.65;46.75
10167;BME280;62970;53.130;8.244;2022-08-30T11:10:50;102351.38;;;20.61;46.78
10167;BME280;62970;53.130;8.244;2022-08-30T11:13:35;102343.63;;;20.56;46.91
10167;BME280;62970;53.130;8.244;2022-08-30T11:16:15;102347.94;;;20.59;46.82
10167;BME280;62970;53.130;8.244;2022-08-30T11:18:50;102350.41;;;20.63;47.28
10167;BME280;62970;53.130;8.244;2022-08-30T11:21:26;102350.94;;;20.71;47.02
10167;BME280;62970;53.130;8.244;2022-08-30T11:24:05;102339.94;;;20.81;46.69
10167;BME280;62970;53.130;8.244;2022-08-30T11:29:41;102344.25;;;20.83;46.26
10167;BME280;62970;53.130;8.244;2022-08-30T11:32:23;102339.69;;;20.87;46.63
10167;BME280;62970;53.130;8.244;2022-08-30T11:34:58;102326.44;;;20.87;46.24
10167;BME280;62970;53.130;8.244;2022-08-30T11:37:35;102329.94;;;20.87;46.69
10167;BME280;62970;53.130;8.244;2022-08-30T11:46:19;102326.16;;;20.72;46.10
10167;BME280;62970;53.130;8.244;2022-08-30T11:48:54;102324.63;;;20.67;46.53
10167;BME280;62970;53.130;8.244;2022-08-30T11:51:59;102333.69;;;20.61;45.93
10167;BME280;62970;53.130;8.244;2022-08-30T11:54:39;102321.56;;;20.56;46.73
10167;BME280;62970;53.130;8.244;2022-08-30T11:57:21;102323.44;;;20.52;46.87
10167;BME280;62970;53.130;8.244;2022-08-30T12:00:07;102319.00;;;20.53;46.56
10167;BME280;62970;53.130;8.244;2022-08-30T12:05:54;102305.47;;;20.60;45.64
10167;BME280;62970;53.130;8.244;2022-08-30T12:08:51;102313.22;;;20.65;45.43
10167;BME280;62970;53.130;8.244;2022-08-30T12:11:55;102316.75;;;20.65;46.19
10167;BME280;62970;53.130;8.244;2022-08-30T12:14:53;102308.84;;;20.64;45.71
10167;BME280;62970;53.130;8.244;2022-08-30T12:17:49;102306.34;;;20.61;45.90
10167;BME280;62970;53.130;8.244;2022-08-30T12:23:50;102314.16;;;20.42;46.02
10167;BME280;62970;53.130;8.244;2022-08-30T12:26:34;102295.16;;;20.31;46.68
10167;BME280;62970;53.130;8.244;2022-08-30T12:29:23;102301.56;;;20.25;46.75
10167;BME280;62970;53.130;8.244;2022-08-30T12:32:17;102296.19;;;20.27;46.62
10167;BME280;62970;53.130;8.244;2022-08-30T12:35:01;102301.91;;;20.38;46.71
10167;BME280;62970;53.130;8.244;2022-08-30T12:37:57;102290.84;;;20.50;46.42
10167;BME280;62970;53.130;8.244;2022-08-30T12:40:32;102284.09;;;20.65;46.44
10167;BME280;62970;53.130;8.244;2022-08-30T12:43:15;102285.53;;;20.72;46.29
10167;BME280;62970;53.130;8.244;2022-08-30T12:45:53;102288.00;;;20.77;45.62
10167;BME280;62970;53.130;8.244;2022-08-30T12:48:24;102291.50;;;20.77;45.74
10167;BME280;62970;53.130;8.244;2022-08-30T12:50:56;102280.84;;;20.79;45.71
10167;BME280;62970;53.130;8.244;2022-08-30T12:53:30;102284.28;;;20.81;45.93
10167;BME280;62970;53.130;8.244;2022-08-30T12:58:41;102271.44;;;20.92;45.57
10167;BME280;62970;53.130;8.244;2022-08-30T13:01:27;102270.25;;;20.99;45.34
10167;BME280;62970;53.130;8.244;2022-08-30T13:04:10;102276.00;;;21.09;44.96
10167;BME280;62970;53.130;8.244;2022-08-30T13:06:49;102267.69;;;21.16;45.14
10167;BME280;62970;53.130;8.244;2022-08-30T13:09:25;102274.34;;;21.26;44.65
10167;BME280;62970;53.130;8.244;2022-08-30T13:11:59;102267.69;;;21.36;44.69
10167;BME280;62970;53.130;8.244;2022-08-30T13:14:36;102266.56;;;21.42;44.17
10167;BME280;62970;53.130;8.244;2022-08-30T13:17:20;102255.81;;;21.45;43.69
10167;BME280;62970;53.130;8.244;2022-08-30T13:20:03;102260.09;;;21.48;43.86
10167;BME280;62970;53.130;8.244;2022-08-30T13:22:35;102251.94;;;21.52;44.34
10167;BME280;62970;53.130;8.244;2022-08-30T13:25:07;102249.94;;;21.57;44.13
10167;BME280;62970;53.130;8.244;2022-08-30T13:27:40;102247.84;;;21.64;43.87
10167;BME280;62970;53.130;8.244;2022-08-30T13:30:13;102254.16;;;21.80;44.01
10167;BME280;62970;53.130;8.244;2022-08-30T13:32:44;102241.94;;;21.95;43.78
10167;BME280;62970;53.130;8.244;2022-08-30T13:35:13;102250.25;;;22.06;43.39
10167;BME280;62970;53.130;8.244;2022-08-30T13:37:42;102248.47;;;22.07;42.80
10167;BME280;62970;53.130;8.244;2022-08-30T13:40:14;102249.56;;;22.03;42.92
10167;BME280;62970;53.130;8.244;2022-08-30T13:42:46;102251.50;;;21.99;42.73
10167;BME280;62970;53.130;8.244;2022-08-30T13:45:17;102250.91;;;21.92;42.69
10167;BME280;62970;53.130;8.244;2022-08-30T13:47:48;102253.13;;;21.83;43.02
10167;BME280;62970;53.130;8.244;2022-08-30T13:50:19;102255.38;;;21.73;42.88
10167;BME280;62970;53.130;8.244;2022-08-30T13:52:54;102251.50;;;21.61;42.71
10167;BME280;62970;53.130;8.244;2022-08-30T13:55:26;102250.00;;;21.56;42.73
10167;BME280;62970;53.130;8.244;2022-08-30T13:57:58;102249.34;;;21.51;42.81
10167;BME280;62970;53.130;8.244;2022-08-30T14:00:27;102249.41;;;21.49;42.57
10167;BME280;62970;53.130;8.244;2022-08-30T14:02:56;102245.97;;;21.47;42.52
10167;BME280;62970;53.130;8.244;2022-08-30T14:05:29;102244.97;;;21.50;42.60
10167;BME280;62970;53.130;8.244;2022-08-30T14:07:59;102247.28;;;21.57;42.91
10167;BME280;62970;53.130;8.244;2022-08-30T14:10:30;102245.84;;;21.69;42.79
10167;BME280;62970;53.130;8.244;2022-08-30T14:13:03;102237.28;;;21.81;43.05
10167;BME280;62970;53.130;8.244;2022-08-30T14:15:35;102247.59;;;21.87;42.28
10167;BME280;62970;53.130;8.244;2022-08-30T14:18:07;102242.16;;;21.90;42.70
10167;BME280;62970;53.130;8.244;2022-08-30T14:20:36;102241.06;;;21.94;42.76
10167;BME280;62970;53.130;8.244;2022-08-30T14:23:05;102245.44;;;21.95;42.11
10167;BME280;62970;53.130;8.244;2022-08-30T14:25:35;102236.63;;;21.95;42.51
10167;BME280;62970;53.130;8.244;2022-08-30T14:28:07;102238.56;;;21.91;42.08
10167;BME280;62970;53.130;8.244;2022-08-30T14:30:36;102250.97;;;21.91;42.42
10167;BME280;62970;53.130;8.244;2022-08-30T14:33:06;102242.38;;;21.86;42.26
10167;BME280;62970;53.130;8.244;2022-08-30T14:35:35;102245.19;;;21.83;41.86
10167;BME280;62970;53.130;8.244;2022-08-30T14:38:04;102243.44;;;21.82;42.06
10167;BME280;62970;53.130;8.244;2022-08-30T14:40:33;102239.00;;;21.82;42.59
10167;BME280;62970;53.130;8.244;2022-08-30T14:43:07;102243.38;;;21.83;42.43
10167;BME280;62970;53.130;8.244;2022-08-30T14:45:36;102240.66;;;21.85;42.82
10167;BME280;62970;53.130;8.244;2022-08-30T14:48:06;102237.84;;;21.88;42.38
10167;BME280;62970;53.130;8.244;2022-08-30T14:50:36;102229.97;;;21.86;42.15
10167;BME280;62970;53.130;8.244;2022-08-30T14:53:06;102236.13;;;21.87;42.02
10167;BME280;62970;53.130;8.244;2022-08-30T14:55:36;102237.13;;;21.84;42.20
10167;BME280;62970;53.130;8.244;2022-08-30T14:58:08;102230.03;;;21.85;42.14
10167;BME280;62970;53.130;8.244;2022-08-30T15:00:41;102229.88;;;21.88;42.24
10167;BME280;62970;53.130;8.244;2022-08-30T15:03:11;102224.34;;;21.92;42.47
10167;BME280;62970;53.130;8.244;2022-08-30T15:05:40;102224.19;;;21.95;42.43
10167;BME280;62970;53.130;8.244;2022-08-30T15:08:15;102223.28;;;21.96;42.28
10167;BME280;62970;53.130;8.244;2022-08-30T15:10:45;102224.16;;;21.97;42.16
10167;BME280;62970;53.130;8.244;2022-08-30T15:13:16;102225.06;;;21.96;42.36
10167;BME280;62970;53.130;8.244;2022-08-30T15:15:45;102222.47;;;21.94;42.14
10167;BME280;62970;53.130;8.244;2022-08-30T15:18:14;102219.97;;;21.91;42.10
10167;BME280;62970;53.130;8.244;2022-08-30T15:20:46;102221.13;;;21.86;41.71
10167;BME280;62970;53.130;8.244;2022-08-30T15:23:16;102219.63;;;21.80;41.92
10167;BME280;62970;53.130;8.244;2022-08-30T15:25:45;102220.66;;;21.78;42.40
10167;BME280;62970;53.130;8.244;2022-08-30T15:28:17;102212.91;;;21.73;42.53
10167;BME280;62970;53.130;8.244;2022-08-30T15:30:46;102219.16;;;21.72;42.36
10167;BME280;62970;53.130;8.244;2022-08-30T15:33:15;102217.50;;;21.69;42.58
10167;BME280;62970;53.130;8.244;2022-08-30T15:35:44;102215.63;;;21.72;42.50
10167;BME280;62970;53.130;8.244;2022-08-30T15:38:14;102210.09;;;21.76;42.17
10167;BME280;62970;53.130;8.244;2022-08-30T15:40:44;102207.22;;;21.81;42.43
10167;BME280;62970;53.130;8.244;2022-08-30T15:43:16;102204.28;;;21.87;42.75
10167;BME280;62970;53.130;8.244;2022-08-30T15:45:46;102194.13;;;21.95;42.18
10167;BME280;62970;53.130;8.244;2022-08-30T15:48:15;102206.28;;;22.00;42.50
10167;BME280;62970;53.130;8.244;2022-08-30T15:50:44;102205.34;;;22.02;41.75
10167;BME280;62970;53.130;8.244;2022-08-30T15:53:13;102196.66;;;21.98;42.17
10167;BME280;62970;53.130;8.244;2022-08-30T15:55:43;102204.69;;;21.96;41.58
10167;BME280;62970;53.130;8.244;2022-08-30T15:58:17;102202.09;;;21.95;42.04
10167;BME280;62970;53.130;8.244;2022-08-30T16:00:46;102205.69;;;21.94;41.78
10167;BME280;62970;53.130;8.244;2022-08-30T16:03:15;102207.56;;;21.92;41.80
10167;BME280;62970;53.130;8.244;2022-08-30T16:05:45;102208.72;;;21.86;41.57
10167;BME280;62970;53.130;8.244;2022-08-30T16:08:14;102214.19;;;21.83;41.90
10167;BME280;62970;53.130;8.244;2022-08-30T16:10:43;102211.19;;;21.72;41.86
10167;BME280;62970;53.130;8.244;2022-08-30T16:13:12;102212.69;;;21.59;42.34
10167;BME280;62970;53.130;8.244;2022-08-30T16:15:44;102214.06;;;21.49;42.31
10167;BME280;62970;53.130;8.244;2022-08-30T16:18:14;102208.41;;;21.38;42.60
10167;BME280;62970;53.130;8.244;2022-08-30T16:20:44;102201.81;;;21.27;42.55
10167;BME280;62970;53.130;8.244;2022-08-30T16:23:13;102199.41;;;21.21;42.94
10167;BME280;62970;53.130;8.244;2022-08-30T16:25:42;102198.81;;;21.15;42.62
10167;BME280;62970;53.130;8.244;2022-08-30T16:28:11;102196.44;;;21.09;42.72
10167;BME280;62970;53.130;8.244;2022-08-30T16:30:43;102201.09;;;21.03;42.87
10167;BME280;62970;53.130;8.244;2022-08-30T16:33:13;102195.09;;;21.00;43.16
10167;BME280;62970;53.130;8.244;2022-08-30T16:35:42;102197.94;;;20.95;43.35
10167;BME280;62970;53.130;8.244;2022-08-30T16:38:11;102202.44;;;20.93;43.25
10167;BME280;62970;53.130;8.244;2022-08-30T16:40:40;102195.63;;;20.88;43.46
10167;BME280;62970;53.130;8.244;2022-08-30T16:43:11;102195.63;;;20.88;43.47
10167;BME280;62970;53.130;8.244;2022-08-30T16:45:43;102192.25;;;20.84;43.18
10167;BME280;62970;53.130;8.244;2022-08-30T16:48:13;102191.41;;;20.84;43.67
10167;BME280;62970;53.130;8.244;2022-08-30T16:50:44;102187.22;;;20.78;43.10
10167;BME280;62970;53.130;8.244;2022-08-30T16:53:14;102188.28;;;20.74;43.70
10167;BME280;62970;53.130;8.244;2022-08-30T16:55:43;102186.84;;;20.67;43.71
10167;BME280;62970;53.130;8.244;2022-08-30T16:58:13;102189.81;;;20.59;43.63
10167;BME280;62970;53.130;8.244;2022-08-30T17:00:50;102195.50;;;20.50;43.94
10167;BME280;62970;53.130;8.244;2022-08-30T17:03:20;102193.16;;;20.42;44.10
10167;BME280;62970;53.130;8.244;2022-08-30T17:05:49;102195.25;;;20.34;43.79
10167;BME280;62970;53.130;8.244;2022-08-30T17:08:18;102192.91;;;20.27;44.49
10167;BME280;62970;53.130;8.244;2022-08-30T17:10:47;102192.38;;;20.19;44.19
10167;BME280;62970;53.130;8.244;2022-08-30T17:13:17;102193.56;;;20.12;44.25
10167;BME280;62970;53.130;8.244;2022-08-30T17:15:51;102194.75;;;20.04;44.52
10167;BME280;62970;53.130;8.244;2022-08-30T17:18:21;102205.69;;;19.95;44.40
10167;BME280;62970;53.130;8.244;2022-08-30T17:20:50;102201.59;;;19.88;44.68
10167;BME280;62970;53.130;8.244;2022-08-30T17:23:19;102209.75;;;19.82;44.54
10167;BME280;62970;53.130;8.244;2022-08-30T17:25:48;102202.97;;;19.75;44.58
10167;BME280;62970;53.130;8.244;2022-08-30T17:28:17;102209.41;;;19.68;45.02
10167;BME280;62970;53.130;8.244;2022-08-30T17:30:50;102216.66;;;19.63;45.15
10167;BME280;62970;53.130;8.244;2022-08-30T17:33:20;102213.34;;;19.58;45.23
10167;BME280;62970;53.130;8.244;2022-08-30T17:35:51;102212.66;;;19.53;45.25
10167;BME280;62970;53.130;8.244;2022-08-30T17:38:21;102220.72;;;19.50;45.43
10167;BME280;62970;53.130;8.244;2022-08-30T17:40:51;102223.47;;;19.46;45.37
10167;BME280;62970;53.130;8.244;2022-08-30T17:43:20;102234.16;;;19.43;45.42
10167;BME280;62970;53.130;8.244;2022-08-30T17:45:53;102231.69;;;19.39;45.29
10167;BME280;62970;53.130;8.244;2022-08-30T17:48:30;102235.44;;;19.33;45.80
10167;BME280;62970;53.130;8.244;2022-08-30T17:51:01;102239.97;;;19.30;45.43
10167;BME280;62970;53.130;8.244;2022-08-30T17:53:30;102236.66;;;19.25;45.55
10167;BME280;62970;53.130;8.244;2022-08-30T17:56:00;102239.47;;;19.20;45.84
10167;BME280;62970;53.130;8.244;2022-08-30T17:58:29;102242.22;;;19.17;45.56
10167;BME280;62970;53.130;8.244;2022-08-30T18:01:12;102246.69;;;19.15;45.89
10167;BME280;62970;53.130;8.244;2022-08-30T18:03:41;102252.03;;;19.13;45.86
10167;BME280;62970;53.130;8.244;2022-08-30T18:06:11;102250.31;;;19.12;46.08
10167;BME280;62970;53.130;8.244;2022-08-30T18:08:40;102253.88;;;19.11;46.18
10167;BME280;62970;53.130;8.244;2022-08-30T18:11:10;102248.53;;;19.13;46.29
10167;BME280;62970;53.130;8.244;2022-08-30T18:13:39;102257.38;;;19.12;46.33
10167;BME280;62970;53.130;8.244;2022-08-30T18:18:37;102269.78;;;19.10;46.27
10167;BME280;62970;53.130;8.244;2022-08-30T18:21:11;102274.22;;;19.09;46.75
10167;BME280;62970;53.130;8.244;2022-08-30T18:23:41;102276.91;;;19.08;46.46
10167;BME280;62970;53.130;8.244;2022-08-30T18:26:12;102285.88;;;19.04;46.48
10167;BME280;62970;53.130;8.244;2022-08-30T18:28:43;102281.53;;;19.01;46.73
10167;BME280;62970;53.130;8.244;2022-08-30T18:31:15;102293.06;;;18.99;46.26
10167;BME280;62970;53.130;8.244;2022-08-30T18:33:45;102294.03;;;18.96;46.59
10167;BME280;62970;53.130;8.244;2022-08-30T18:36:14;102293.34;;;18.91;46.69
10167;BME280;62970;53.130;8.244;2022-08-30T18:38:44;102299.69;;;18.86;46.62
10167;BME280;62970;53.130;8.244;2022-08-30T18:41:14;102298.06;;;18.81;46.53
10167;BME280;62970;53.130;8.244;2022-08-30T18:43:43;102302.66;;;18.76;46.04
10167;BME280;62970;53.130;8.244;2022-08-30T18:46:17;102305.44;;;18.72;46.29
10167;BME280;62970;53.130;8.244;2022-08-30T18:51:18;102296.91;;;18.64;46.10
10167;BME280;62970;53.130;8.244;2022-08-30T18:53:48;102296.97;;;18.62;46.42
10167;BME280;62970;53.130;8.244;2022-08-30T18:56:22;102303.25;;;18.58;46.10
10167;BME280;62970;53.130;8.244;2022-08-30T18:58:57;102306.81;;;18.57;46.56
10167;BME280;62970;53.130;8.244;2022-08-30T19:01:30;102306.91;;;18.54;46.29
10167;BME280;62970;53.130;8.244;2022-08-30T19:04:00;102309.66;;;18.51;46.08
10167;BME280;62970;53.130;8.244;2022-08-30T19:06:29;102319.47;;;18.47;46.25
10167;BME280;62970;53.130;8.244;2022-08-30T19:08:59;102314.34;;;18.43;46.41
10167;BME280;62970;53.130;8.244;2022-08-30T19:11:28;102307.47;;;18.37;45.96
10167;BME280;62970;53.130;8.244;2022-08-30T19:13:57;102314.69;;;18.32;46.48
10167;BME280;62970;53.130;8.244;2022-08-30T19:16:29;102313.09;;;18.27;46.31
